Date,TemperatureHighF,TemperatureAvgF,TemperatureLowF,DewpointHighF,DewpointAvgF,DewpointLowF,HumidityHigh,HumidityAvg,HumidityLow,PressureMaxIn,PressureMinIn,WindSpeedMaxMPH,WindSpeedAvgMPH,GustSpeedMaxMPH,PrecipitationSumIn
2013-5-23,56.6,53.5,48.0,42.0,40.8,39.0,73,62,56,29.79,29.76,5,2,8,0.02
2013-5-24,65.4,54.0,41.8,43.0,39.3,36.0,84,60,38,29.76,29.64,8,2,12,0.00
2013-5-25,67.4,57.1,43.6,40.0,33.2,18.0,68,44,16,29.66,29.54,11,3,17,0.00
2013-5-26,61.6,52.6,40.2,44.0,38.0,30.0,84,59,34,29.61,29.53,7,2,12,0.00
2013-5-27,73.1,60.6,47.9,44.0,42.2,40.0,81,54,32,29.58,29.42,9,2,14,0.00
2013-5-28,74.8,60.4,45.1,50.0,44.0,40.0,81,57,35,29.45,29.31,8,2,11,0.00
2013-5-29,77.5,65.3,51.6,48.0,42.9,41.0,71,46,28,29.42,29.32,9,2,10,0.00
2013-5-30,68.9,58.6,48.8,46.0,43.3,41.0,77,58,38,29.68,29.42,8,2,12,0.00
2013-5-31,60.1,52.4,46.2,48.0,44.7,41.0,87,76,60,29.83,29.69,14,3,21,0.00
2013-6-1,54.9,49.9,45.6,47.0,44.2,43.0,92,81,70,29.88,29.83,8,2,14,0.00
2013-6-2,55.8,49.2,45.8,48.0,45.3,43.0,95,87,68,29.91,29.75,6,2,10,0.48
2013-6-3,55.3,50.9,45.1,47.0,44.0,40.0,91,78,63,29.75,29.43,8,1,8,0.00
2013-6-4,58.0,51.7,45.7,45.0,40.2,34.0,90,67,44,29.50,29.36,16,4,23,0.00
2013-6-5,59.4,52.0,41.2,42.0,37.7,34.0,77,59,43,29.63,29.50,9,2,14,0.00
2013-6-6,67.2,55.9,41.5,42.0,37.1,33.0,74,51,34,29.62,29.36,8,3,12,0.00
2013-6-7,72.1,58.2,48.6,44.0,39.9,37.0,74,53,28,29.59,29.36,12,4,19,0.00
2013-6-8,71.5,60.9,49.8,47.0,42.2,37.0,77,52,35,29.77,29.61,8,2,11,0.00
2013-6-9,74.9,65.7,53.5,47.0,43.4,39.0,69,47,29,29.86,29.77,9,2,11,0.00
2013-6-10,73.8,64.8,55.7,48.0,43.6,41.0,60,47,34,29.91,29.79,7,2,12,0.00
2013-6-11,73.8,63.7,51.9,48.0,43.9,41.0,72,50,33,29.81,29.65,9,2,13,0.00
2013-6-12,75.7,66.0,53.0,46.0,42.8,35.0,68,45,25,29.67,29.60,8,2,11,0.00
2013-6-13,68.5,59.2,51.7,51.0,45.9,39.0,83,63,41,29.85,29.62,10,3,17,0.01
2013-6-14,71.7,60.5,47.9,52.0,45.9,41.0,79,60,37,29.92,29.85,6,2,11,0.00
2013-6-15,71.4,61.1,49.2,53.0,49.1,44.0,84,66,45,29.99,29.89,7,2,10,0.00
2013-6-16,81.2,67.6,53.9,57.0,51.8,45.0,77,59,42,29.91,29.78,6,1,9,0.00
2013-6-17,83.0,71.8,59.2,57.0,51.6,47.0,74,50,36,29.79,29.52,6,2,9,0.00
2013-6-18,83.6,72.4,58.9,57.0,49.0,39.0,82,48,21,29.57,29.44,11,3,17,0.00
2013-6-19,72.4,65.8,55.4,49.0,45.0,41.0,72,48,34,29.64,29.57,12,3,26,0.00
2013-6-20,68.8,60.6,50.7,52.0,48.8,44.0,83,66,52,29.70,29.63,14,2,15,0.00
2013-6-21,55.1,52.3,49.6,50.0,45.4,41.0,86,78,61,29.78,29.70,8,2,11,0.00
2013-6-22,69.4,57.7,48.4,50.0,45.5,43.0,85,66,40,29.73,29.45,7,1,13,0.00
2013-6-23,69.5,60.8,50.3,49.0,45.8,43.0,80,59,42,29.45,29.30,6,1,10,0.00
2013-6-24,71.7,63.1,55.3,51.0,48.9,46.0,79,61,45,29.36,29.29,5,2,10,0.00
2013-6-25,74.5,64.6,54.2,55.0,49.8,47.0,77,60,47,29.30,29.27,8,2,13,0.00
2013-6-26,79.8,69.0,56.4,55.0,52.4,48.0,82,58,34,29.54,29.30,17,3,22,0.00
2013-6-27,67.2,62.0,58.1,56.0,54.1,52.0,86,75,59,29.75,29.54,7,2,10,0.00
2013-6-28,61.9,56.6,54.4,55.0,52.4,51.0,91,86,78,29.86,29.75,4,1,8,0.00
2013-6-29,65.2,59.2,54.2,55.0,52.9,51.0,93,80,65,29.82,29.66,6,1,10,0.00
2013-6-30,60.2,56.1,54.6,55.0,50.6,49.0,90,82,78,29.72,29.48,6,2,10,0.00
2013-7-1,56.6,53.7,50.8,52.0,50.3,49.0,95,88,80,29.49,29.26,7,2,9,0.03
2013-7-2,60.8,55.6,50.6,51.0,46.4,40.0,93,73,47,29.55,29.27,15,3,23,0.00
2013-7-3,61.1,55.5,50.6,49.0,45.8,41.0,86,72,51,29.68,29.57,12,2,18,0.00
2013-7-4,57.8,53.4,50.3,50.0,47.5,40.0,94,81,53,29.72,29.65,11,2,21,0.16
2013-7-5,62.0,54.8,50.2,50.0,48.3,47.0,91,80,62,29.74,29.68,5,1,7,0.08
2013-7-6,61.5,55.0,51.3,51.0,49.9,48.0,94,83,62,29.69,29.44,5,1,9,0.00
2013-7-7,65.6,56.4,52.3,52.0,50.2,46.0,94,80,51,29.43,29.25,25,3,26,0.00
2013-7-8,61.6,53.5,48.6,50.0,48.0,47.0,94,82,62,29.50,29.34,8,2,10,0.01
2013-7-9,66.1,57.9,51.7,50.0,49.0,46.0,89,73,52,29.70,29.50,8,2,12,0.00
2013-7-10,71.0,62.1,55.1,53.0,49.9,47.0,84,65,51,29.71,29.59,9,2,13,0.01
2013-7-11,74.5,65.2,55.8,54.0,51.2,47.0,87,62,43,29.61,29.56,7,2,11,0.01
2013-7-12,77.6,66.8,57.0,54.0,51.1,49.0,78,59,38,29.62,29.56,8,2,11,0.00
2013-7-13,70.2,65.4,57.6,54.0,52.0,49.0,84,63,51,29.83,29.62,10,2,13,0.00
2013-7-14,65.1,58.7,54.7,54.0,52.2,51.0,90,79,64,29.98,29.83,10,2,11,0.00
2013-7-15,61.8,57.4,52.1,53.0,51.4,49.0,90,81,73,30.01,29.91,8,2,10,0.00
2013-7-16,67.4,61.0,55.2,55.0,53.5,52.0,90,77,64,29.91,29.79,6,2,11,0.00
2013-7-17,71.5,64.5,58.5,59.0,56.2,53.0,85,75,66,29.80,29.72,7,2,14,0.00
2013-7-18,72.9,66.2,58.2,60.0,57.8,55.0,89,74,62,29.81,29.74,13,2,20,0.00
2013-7-19,71.8,66.8,63.0,58.0,54.4,52.0,73,65,53,29.84,29.77,14,5,23,0.00
2013-7-20,70.7,63.1,55.3,56.0,51.4,48.0,93,68,46,29.81,29.71,12,2,13,0.21
2013-7-21,76.0,65.6,51.2,52.0,46.1,42.0,79,52,31,29.73,29.59,14,3,18,0.00
2013-7-22,77.8,67.2,53.7,54.0,48.1,45.0,75,52,36,29.74,29.63,8,2,12,0.00
2013-7-23,78.5,67.8,58.3,55.0,50.2,46.0,69,54,41,29.77,29.68,8,2,10,0.00
2013-7-24,79.5,68.7,58.7,57.0,53.1,50.0,73,59,42,29.70,29.58,6,2,11,0.00
2013-7-25,75.3,66.5,60.9,61.0,57.2,52.0,89,73,56,29.72,29.60,8,2,12,0.05
2013-7-26,70.2,63.0,59.7,60.0,58.2,56.0,93,85,71,29.95,29.73,6,2,11,0.00
2013-7-27,70.8,63.7,59.6,59.0,56.8,55.0,88,79,64,30.01,29.95,7,1,10,0.00
2013-7-28,74.6,65.8,58.7,61.0,58.0,55.0,90,77,60,29.96,29.81,7,1,10,0.00
2013-7-29,72.8,65.5,58.2,60.0,57.5,56.0,92,76,61,29.85,29.78,7,1,11,0.00
2013-7-30,73.0,65.5,57.1,60.0,57.2,54.0,90,75,63,29.87,29.81,8,2,10,0.00
2013-7-31,71.2,64.0,56.6,59.0,56.4,54.0,91,77,62,29.87,29.78,8,2,11,0.00
2013-8-1,71.0,63.3,57.1,58.0,56.1,54.0,89,78,64,29.80,29.62,7,1,9,0.00
2013-8-2,71.4,63.3,54.5,56.0,53.9,51.0,94,73,52,29.65,29.45,11,2,12,0.00
2013-8-3,69.5,63.7,57.4,56.0,51.3,47.0,91,66,48,29.54,29.41,16,4,26,0.03
2013-8-4,65.7,61.4,57.0,54.0,51.5,47.0,86,71,55,29.61,29.54,8,1,14,0.00
2013-8-5,66.9,61.1,55.0,55.0,51.4,46.0,94,72,49,29.63,29.60,9,2,15,0.01
2013-8-6,66.4,60.7,54.7,53.0,51.9,50.0,89,73,56,29.62,29.56,5,1,8,0.00
2013-8-7,60.1,57.3,54.8,57.0,54.9,53.0,96,91,82,29.56,29.41,4,0,6,0.17
2013-8-8,62.4,57.2,54.3,56.0,52.9,48.0,96,86,65,29.48,29.38,10,2,16,0.04
2013-8-9,56.3,53.1,50.5,54.0,51.4,49.0,97,94,82,29.48,29.37,9,2,10,0.45
2013-8-10,60.1,55.3,51.7,56.0,53.2,50.0,97,92,80,29.65,29.42,4,1,8,0.19
2013-8-11,56.7,55.3,53.0,56.0,54.3,52.0,98,96,92,29.67,29.64,7,1,9,0.50
2013-8-12,66.1,59.4,55.0,60.0,57.0,55.0,99,92,76,29.70,29.66,5,1,8,0.15
2013-8-13,69.8,60.6,55.1,60.0,56.0,53.0,97,85,59,29.67,29.61,9,2,13,0.00
2013-8-14,59.6,56.7,54.8,54.0,51.6,50.0,91,83,72,29.68,29.55,5,1,7,0.00
2013-8-15,65.9,58.3,52.6,53.0,51.2,48.0,92,78,61,29.55,29.42,7,1,8,0.00
2013-8-16,58.9,54.7,49.8,56.0,51.8,47.0,94,89,81,29.42,29.31,3,0,5,0.09
2013-8-17,66.4,57.8,52.4,57.0,54.0,52.0,98,88,67,29.31,29.16,3,0,6,0.17
2013-8-18,59.8,57.4,55.1,58.0,56.0,54.0,97,95,91,29.30,29.14,4,0,6,0.36
2013-8-19,57.1,54.8,52.8,56.0,53.8,52.0,97,96,90,29.40,29.30,4,0,6,0.71
2013-8-20,60.0,55.0,51.4,56.0,53.1,51.0,98,93,79,29.49,29.41,5,1,9,0.14
2013-8-21,56.4,53.7,51.7,54.0,52.1,49.0,98,94,78,29.51,29.41,3,0,8,0.48
2013-8-22,54.8,53.1,51.4,54.0,52.4,51.0,98,97,96,29.41,29.34,3,0,5,0.38
2013-8-23,64.0,57.6,52.3,57.0,53.9,52.0,99,88,69,29.34,29.18,6,1,10,0.02
2013-8-24,67.7,57.8,49.8,54.0,49.1,43.0,98,76,41,29.34,29.22,7,2,10,0.01
2013-8-25,66.3,54.8,41.3,51.0,43.7,39.0,92,68,43,29.39,29.33,4,1,7,0.00
2013-8-26,64.5,55.8,45.1,51.0,46.3,41.0,87,72,53,29.41,29.37,6,1,8,0.00
2013-8-27,62.9,55.8,50.2,55.0,50.1,46.0,91,81,66,29.44,29.38,6,1,10,0.01
2013-8-28,61.5,56.5,52.4,53.0,50.2,48.0,96,80,62,29.38,29.22,7,2,12,0.42
2013-8-29,55.8,52.7,50.5,55.0,51.8,50.0,98,96,95,29.52,29.20,6,1,10,0.12
2013-8-30,60.4,55.5,51.3,55.0,53.1,51.0,98,92,79,29.61,29.52,7,1,9,0.01
2013-8-31,56.8,54.5,50.7,54.0,51.9,49.0,96,91,82,29.57,29.47,6,1,9,0.12
2013-9-1,57.6,53.5,51.4,53.0,51.3,50.0,96,92,81,29.48,29.35,6,1,10,0.02
2013-9-2,64.1,55.7,52.4,55.0,51.5,46.0,98,87,52,29.35,29.13,24,3,41,0.23
2013-9-3,65.8,55.4,52.0,54.0,50.7,45.0,94,84,57,29.18,28.91,18,4,26,0.08
2013-9-4,56.5,51.8,49.5,52.0,49.8,48.0,97,92,78,29.42,29.04,10,2,16,1.34
2013-9-5,61.1,53.4,43.8,47.0,44.0,41.0,95,72,50,29.65,29.43,18,4,26,0.00
2013-9-6,54.1,48.3,44.0,50.0,45.9,42.0,96,91,84,29.65,29.05,6,1,13,0.15
2013-9-7,57.1,51.9,47.9,53.0,50.0,47.0,97,93,84,29.29,29.11,5,1,8,0.16
2013-9-8,60.3,53.3,50.2,51.0,50.1,48.0,97,89,67,29.40,29.09,11,4,21,0.37
2013-9-9,57.4,53.3,51.9,52.0,44.0,-99.9,93,83,74,29.35,0.00,7,-20,9,0.00
2013-9-10,54.9,51.9,49.4,53.0,50.5,48.0,97,95,91,29.39,29.32,4,0,6,0.10
2013-9-11,59.7,52.7,48.7,52.0,49.8,47.0,98,90,71,29.53,29.24,7,2,12,0.69
2013-9-12,60.9,53.3,47.5,51.0,48.5,46.0,96,84,62,29.62,29.53,6,1,9,0.00
2013-9-13,56.7,52.1,47.4,52.0,49.4,46.0,97,91,76,29.59,29.53,5,1,7,0.21
2013-9-14,63.0,52.8,44.3,53.0,49.3,44.0,99,88,67,29.58,29.48,5,1,9,0.01
2013-9-15,61.4,51.3,42.4,48.0,41.7,37.0,95,72,47,29.52,29.34,5,1,7,0.00
2013-9-16,56.2,48.9,40.2,43.0,39.8,36.0,89,72,52,29.34,29.13,5,1,9,0.00
2013-9-17,52.6,48.5,45.9,47.0,44.9,44.0,94,87,73,29.16,29.10,3,0,7,0.01
2013-9-18,53.9,47.0,42.2,46.0,43.6,40.0,95,88,73,29.25,29.16,6,1,12,0.19
2013-9-19,49.7,43.7,38.8,44.0,35.4,27.0,97,76,42,29.22,29.06,6,2,12,0.14
2013-9-20,46.3,37.6,29.2,29.0,25.7,23.0,84,64,42,29.06,28.66,7,2,10,0.00
2013-9-21,44.2,37.6,30.8,38.0,31.4,28.0,91,79,62,28.66,28.57,9,1,11,0.00
2013-9-22,43.2,39.8,37.6,38.0,30.9,24.0,82,71,53,28.93,28.57,10,2,16,0.00
2013-9-23,43.0,36.6,32.9,35.0,31.9,24.0,95,84,52,29.39,28.94,7,1,13,0.11
2013-9-24,42.6,36.2,29.1,37.0,32.7,28.0,96,87,75,29.61,29.40,5,1,8,0.01
2013-9-25,47.8,42.8,38.6,46.0,41.6,37.0,97,95,86,29.45,29.09,8,2,13,0.79
2013-9-26,48.7,44.7,41.6,47.0,43.7,41.0,98,96,90,29.25,28.87,4,1,5,0.17
2013-9-27,52.5,46.3,42.6,46.0,43.5,42.0,98,90,77,28.85,28.62,5,1,8,0.00
2013-9-28,53.5,45.5,38.8,42.0,37.5,31.0,93,75,57,28.79,28.70,7,1,9,0.00
2013-9-29,50.3,44.5,37.4,36.0,31.5,28.0,76,61,48,28.98,28.77,6,2,12,0.00
2013-9-30,53.4,44.2,33.7,34.0,29.7,27.0,80,58,44,29.25,28.98,9,2,18,0.00
2013-10-1,50.5,42.5,34.0,35.0,29.3,27.0,78,61,46,29.40,29.26,5,1,12,0.00
2013-10-16,46.1,45.8,45.4,43.0,43.0,43.0,91,90,89,29.77,29.76,3,1,9,0.00
2013-10-17,52.3,47.1,43.4,45.0,43.0,39.0,95,86,62,29.77,29.41,12,3,22,0.12
2013-10-18,55.0,50.1,43.2,43.0,36.3,30.0,96,63,40,29.41,29.23,24,8,42,0.09
2013-10-19,54.5,50.4,43.4,40.0,34.3,31.0,82,56,41,29.27,28.99,28,10,37,0.00
2013-10-20,51.7,49.1,42.7,38.0,31.1,27.0,82,51,44,29.56,29.28,18,7,30,0.00
2013-10-21,48.7,42.3,36.7,38.0,36.1,33.0,88,79,64,29.66,29.56,5,1,11,0.00
2013-10-22,45.7,40.1,33.9,38.0,35.3,29.0,95,83,67,29.81,29.66,8,1,10,0.00
2013-10-23,39.3,33.5,28.9,35.0,29.0,23.0,97,84,65,29.67,29.38,5,1,8,0.00
2013-10-24,36.0,32.1,26.1,33.0,27.6,21.0,90,83,74,29.45,29.28,12,2,15,0.00
2013-10-25,48.2,38.6,32.7,37.0,33.3,31.0,94,82,56,29.78,29.34,5,1,10,0.00
2013-10-26,39.9,36.0,30.6,35.0,32.4,29.0,93,87,80,30.06,29.79,5,1,8,0.00
2013-10-27,41.4,37.8,34.3,40.0,35.3,30.0,97,91,74,29.91,29.21,10,2,19,0.42
2013-10-28,53.0,45.1,37.9,44.0,40.6,37.0,97,85,63,29.23,28.84,23,7,33,0.67
2013-10-29,49.6,45.8,38.9,39.0,34.6,32.0,88,66,54,29.19,28.99,22,5,29,0.00
2013-10-30,44.1,39.6,36.3,36.0,34.8,34.0,91,83,72,28.99,28.72,5,1,8,0.00
2013-10-31,42.9,40.9,37.6,41.0,38.1,34.0,95,90,84,29.24,28.79,6,2,8,0.06
2013-11-1,43.6,41.0,39.3,42.0,39.4,38.0,96,94,88,29.61,29.24,3,0,5,0.08
2013-11-2,41.3,39.4,38.2,40.0,37.8,36.0,97,94,88,29.61,29.43,12,2,14,0.00
2013-11-3,39.1,37.6,36.1,36.0,34.8,34.0,92,89,85,29.45,29.21,8,2,13,0.00
2013-11-4,38.0,35.7,33.1,34.0,32.1,30.0,95,87,75,29.20,28.91,4,1,6,0.00
2013-11-5,40.8,36.4,31.3,32.0,25.7,16.0,87,67,48,29.59,28.99,11,2,15,0.00
2013-11-6,31.9,26.9,22.1,20.0,18.0,17.0,84,70,56,29.68,29.54,6,1,7,0.00
2013-11-7,29.0,24.8,22.0,20.0,18.0,15.0,87,76,65,29.53,29.40,10,2,13,0.00
2013-11-8,29.8,23.1,19.3,19.0,16.6,14.0,84,76,59,29.83,29.49,5,1,7,0.00
2013-11-9,29.6,24.4,19.6,28.0,21.0,14.0,95,87,73,29.83,29.60,7,1,12,0.00
2013-11-10,36.8,32.9,29.6,36.0,32.1,28.0,97,96,94,29.60,29.36,5,2,10,0.31
2013-11-11,31.8,26.7,19.6,31.0,24.3,16.0,97,90,83,29.69,29.45,5,1,7,0.00
2013-11-12,21.1,17.0,12.6,16.0,12.7,9.0,87,83,69,29.76,29.67,4,1,6,0.01
2013-11-13,25.5,22.7,19.5,23.0,19.7,12.0,92,88,68,29.85,29.73,5,1,8,0.00
2013-11-14,32.6,29.4,25.5,31.0,27.6,22.0,97,93,68,29.72,29.49,6,2,10,0.00
2013-11-15,32.5,25.0,19.3,24.0,21.2,17.0,94,86,63,29.67,29.55,6,2,10,0.00
2013-11-16,25.1,21.2,14.7,18.0,12.1,7.0,91,68,56,29.83,29.61,10,2,14,0.00
2013-11-17,17.1,12.5,6.6,8.0,5.9,2.0,83,75,63,29.85,29.80,7,2,12,0.00
2013-11-18,9.6,6.4,2.6,4.0,0.6,-4.0,85,77,73,29.81,29.76,5,1,7,0.00
2013-11-19,5.9,2.2,-3.6,1.0,-2.6,-7.0,87,80,73,29.77,29.63,8,1,9,0.00
2013-11-20,3.6,0.6,-4.4,-1.0,-3.6,-9.0,86,82,75,29.71,29.60,5,2,9,0.00
2013-11-21,16.8,6.2,-1.1,13.0,0.9,-7.0,85,79,71,29.60,28.84,9,3,14,0.00
2013-11-22,29.9,23.9,17.0,29.0,20.1,13.0,95,86,61,29.09,28.70,19,4,20,0.00
2013-11-23,36.5,29.4,21.5,21.0,15.6,8.0,78,57,45,29.58,29.09,24,7,27,0.00
2013-11-24,37.8,29.3,23.9,27.0,24.6,20.0,95,84,51,29.66,29.58,10,2,15,0.00
2013-11-25,28.6,25.4,23.1,26.0,23.5,22.0,95,92,84,29.61,29.34,6,1,10,0.00
2013-11-26,29.9,28.2,27.1,27.0,25.9,25.0,95,91,85,29.50,29.40,2,0,4,0.00
2013-11-27,31.0,28.6,22.9,30.0,25.5,10.0,96,89,57,29.49,29.31,13,2,17,0.00
2013-11-28,22.9,15.0,5.3,10.0,2.6,-4.0,74,59,48,29.61,29.33,10,3,15,0.00
2013-11-29,6.2,0.5,-3.8,2.0,-3.3,-7.0,88,84,68,29.78,29.61,5,1,7,0.00
2013-11-30,7.5,1.1,-5.4,5.0,-2.3,-9.0,88,85,79,30.00,29.76,5,1,8,0.00
2013-12-1,11.3,6.1,0.6,6.0,0.7,-3.0,87,79,67,30.19,30.00,5,1,6,0.00
2013-12-2,14.5,10.6,3.2,13.0,7.6,-1.0,93,87,77,30.33,30.18,5,1,6,0.00
2013-12-3,18.7,14.0,8.5,16.0,12.0,6.0,93,91,85,30.33,30.16,3,0,4,0.00
2013-12-4,24.3,20.6,16.6,23.0,18.8,15.0,94,92,90,30.17,30.03,3,0,5,0.00
2013-12-5,30.6,28.0,24.5,30.0,26.9,23.0,97,95,93,30.14,30.02,6,1,7,0.00
2013-12-6,33.2,32.2,30.6,33.0,31.5,30.0,98,97,96,30.16,30.11,4,1,5,0.00
2013-12-7,34.0,32.9,31.7,33.0,32.4,31.0,98,98,97,30.11,30.05,4,0,6,0.03
2013-12-8,33.3,31.1,28.3,33.0,30.6,27.0,98,98,96,30.08,29.99,6,1,8,0.01
2013-12-9,30.3,29.2,27.2,30.0,28.3,26.0,98,96,93,29.99,29.82,7,1,7,0.00
2013-12-10,29.9,28.3,23.6,29.0,27.4,21.0,98,97,91,29.82,29.39,7,2,9,0.00
2013-12-11,23.8,19.8,13.7,21.0,15.2,10.0,91,82,74,29.39,29.02,8,2,9,0.00
2013-12-12,17.8,14.5,12.1,12.0,9.7,7.0,87,81,75,29.10,29.01,7,2,12,0.00
2013-12-13,18.8,15.1,12.3,17.0,11.9,8.0,93,87,75,29.11,28.47,18,3,19,0.00
2013-12-14,21.9,19.1,17.1,20.0,17.4,15.0,94,93,90,28.71,28.47,11,2,16,0.00
2013-12-15,19.1,13.9,5.4,17.0,11.3,2.0,94,89,80,29.54,28.72,7,1,11,0.00
2013-12-16,7.2,2.3,-2.7,4.0,-0.7,-6.0,90,87,82,29.73,29.54,4,1,6,0.00
2013-12-17,4.5,-0.8,-6.2,1.0,-4.0,-9.0,91,86,83,30.01,29.73,3,1,4,0.00
2013-12-18,6.5,-0.5,-5.7,4.0,-3.4,-9.0,90,87,85,30.01,29.43,4,1,8,0.00
2013-12-19,14.1,12.1,6.8,12.0,10.1,5.0,92,91,90,29.41,29.25,5,1,7,0.00
2013-12-20,22.5,18.4,14.3,21.0,16.7,12.0,95,93,91,29.33,29.26,4,1,6,0.00
2013-12-21,28.3,26.0,22.6,27.0,24.9,21.0,97,95,93,29.29,29.11,2,0,5,0.00
2013-12-22,30.3,27.0,21.6,29.0,24.6,13.0,97,91,68,29.34,28.99,9,2,16,0.00
2013-12-23,22.1,15.3,3.5,13.0,5.7,1.0,88,66,55,29.76,29.34,14,4,15,0.00
2013-12-24,3.8,-0.6,-3.1,2.0,-3.7,-7.0,90,87,85,29.77,29.39,7,2,8,0.00
2013-12-25,4.9,0.1,-2.9,1.0,-3.2,-7.0,91,86,78,29.39,29.33,3,1,5,0.00
2013-12-26,14.3,7.0,0.8,11.0,4.0,-2.0,92,87,82,29.40,29.29,2,0,4,0.00
2013-12-27,12.4,5.6,1.5,10.0,3.1,-1.0,93,89,85,29.59,29.39,5,1,8,0.00
2013-12-28,21.6,18.6,12.6,19.0,16.0,11.0,91,89,83,29.57,29.52,5,1,10,0.00
2013-12-29,20.7,19.0,17.0,19.0,16.8,14.0,94,91,85,29.57,29.31,5,2,8,0.00
2013-12-30,20.0,18.0,15.4,17.0,15.4,13.0,93,89,83,29.31,29.08,5,2,9,0.00
2013-12-31,23.0,18.4,13.9,20.0,15.9,11.0,94,90,86,29.27,28.88,6,2,9,0.00
2014-1-1,34.1,26.8,21.5,33.0,24.8,19.0,96,92,86,29.12,28.76,9,2,10,0.00
2014-1-2,35.4,32.5,26.9,33.0,30.3,24.0,96,91,86,29.67,29.13,6,1,9,0.00